createdAt,value
2022-08-03T00:02:19.196Z,4.30
2022-08-03T00:04:47.983Z,4.15
2022-08-03T00:07:16.457Z,4.28
2022-08-03T00:09:44.960Z,4.60
2022-08-03T00:12:14.992Z,3.90
2022-08-03T00:14:43.616Z,4.05
2022-08-03T00:17:12.679Z,3.85
2022-08-03T00:19:41.329Z,4.07
2022-08-03T00:22:10.097Z,3.50
2022-08-03T00:24:38.601Z,3.60
2022-08-03T00:27:06.953Z,3.50
2022-08-03T00:29:59.351Z,3.53
2022-08-03T00:32:25.405Z,3.47
2022-08-03T00:34:58.689Z,3.10
2022-08-03T00:37:41.408Z,3.85
2022-08-03T00:40:12.510Z,3.85
2022-08-03T00:42:50.581Z,3.15
2022-08-03T00:45:21.475Z,3.22
2022-08-03T00:47:49.990Z,3.47
2022-08-03T00:50:19.413Z,3.10
2022-08-03T00:52:48.484Z,2.60
2022-08-03T00:55:17.405Z,3.38
2022-08-03T00:57:46.531Z,3.17
2022-08-03T01:00:17.493Z,3.33
2022-08-03T01:02:47.299Z,3.42
2022-08-03T01:05:15.946Z,3.30
2022-08-03T01:07:58.914Z,3.60
2022-08-03T01:10:45.558Z,3.40
2022-08-03T01:14:01.334Z,3.72
2022-08-03T01:16:16.699Z,3.95
2022-08-03T01:18:53.538Z,3.60
2022-08-03T01:21:28.843Z,3.72
2022-08-03T01:24:24.938Z,4.55
2022-08-03T01:27:05.328Z,4.07
2022-08-03T01:29:59.362Z,4.03
2022-08-03T01:32:59.326Z,3.63
2022-08-03T01:35:27.760Z,4.10
2022-08-03T01:37:59.558Z,4.55
2022-08-03T01:40:29.629Z,4.13
2022-08-03T01:43:00.538Z,3.85
2022-08-03T01:45:34.165Z,4.57
2022-08-03T01:48:03.786Z,3.83
2022-08-03T01:50:34.617Z,4.60
2022-08-03T01:53:04.025Z,4.35
2022-08-03T01:55:33.985Z,4.32
2022-08-03T01:58:06.810Z,4.43
2022-08-03T02:00:38.237Z,5.07
2022-08-03T02:03:08.341Z,4.82
2022-08-03T02:05:39.333Z,5.00
2022-08-03T02:08:10.062Z,4.38
2022-08-03T02:10:40.797Z,4.25
2022-08-03T02:13:10.791Z,4.78
2022-08-03T02:15:42.412Z,4.57
2022-08-03T02:18:12.185Z,4.30
2022-08-03T02:20:42.920Z,5.22
2022-08-03T02:23:11.721Z,5.03
2022-08-03T02:25:45.282Z,4.95
2022-08-03T02:28:18.646Z,4.60
2022-08-03T02:30:55.190Z,5.88
2022-08-03T02:33:28.477Z,5.35
2022-08-03T02:35:58.978Z,5.32
2022-08-03T02:38:34.111Z,6.10
2022-08-03T02:41:05.948Z,5.53
2022-08-03T02:43:39.222Z,6.03
2022-08-03T02:46:33.658Z,5.90
2022-08-03T02:49:40.711Z,5.95
2022-08-03T02:51:54.342Z,5.88
2022-08-03T02:54:24.905Z,6.32
2022-08-03T02:56:55.256Z,5.82
2022-08-03T02:59:24.603Z,5.93
2022-08-03T03:01:56.214Z,5.97
2022-08-03T03:04:27.575Z,5.25
2022-08-03T03:07:04.315Z,5.28
2022-08-03T03:09:40.181Z,5.85
2022-08-03T03:12:11.015Z,5.78
2022-08-03T03:14:40.124Z,6.00
2022-08-03T03:17:11.508Z,5.90
2022-08-03T03:19:41.366Z,6.20
2022-08-03T03:22:10.294Z,6.53
2022-08-03T03:24:41.338Z,6.00
2022-08-03T03:27:09.916Z,5.97
2022-08-03T03:29:45.194Z,5.65
2022-08-03T03:32:15.190Z,5.15
2022-08-03T03:34:44.751Z,6.35
2022-08-03T03:37:13.054Z,6.68
2022-08-03T03:39:41.322Z,5.55
2022-08-03T03:42:09.875Z,6.65
2022-08-03T03:44:38.361Z,6.43
2022-08-03T03:47:06.791Z,6.15
2022-08-03T03:49:37.985Z,6.47
2022-08-03T03:52:06.957Z,5.53
2022-08-03T03:54:42.812Z,5.40
2022-08-03T03:57:13.091Z,6.45
2022-08-03T03:59:43.171Z,6.25
2022-08-03T04:02:13.252Z,6.82
2022-08-03T04:05:01.004Z,7.32
2022-08-03T04:07:51.106Z,7.95
2022-08-03T04:10:41.413Z,6.32
2022-08-03T04:13:13.327Z,7.20
2022-08-03T04:15:42.501Z,7.07
2022-08-03T04:18:14.990Z,6.85
2022-08-03T04:20:48.266Z,7.93
2022-08-03T04:23:20.568Z,7.30
2022-08-03T04:25:51.525Z,7.53
2022-08-03T04:28:31.347Z,8.57
2022-08-03T04:31:01.229Z,7.22
2022-08-03T04:33:33.142Z,8.20
2022-08-03T04:36:08.501Z,9.00
2022-08-03T04:38:41.054Z,7.57
2022-08-03T04:41:09.979Z,8.23
2022-08-03T04:43:40.794Z,7.78
2022-08-03T04:46:10.028Z,7.95
2022-08-03T04:48:41.283Z,7.30
2022-08-03T04:51:14.352Z,7.80
2022-08-03T04:53:43.756Z,7.68
2022-08-03T04:56:12.391Z,8.40
2022-08-03T04:58:40.822Z,7.30
2022-08-03T05:01:09.335Z,8.50
2022-08-03T05:03:37.924Z,8.10
2022-08-03T05:06:11.056Z,9.23
2022-08-03T05:08:46.910Z,7.40
2022-08-03T05:11:15.997Z,8.30
2022-08-03T05:13:44.447Z,8.75
2022-08-03T05:16:13.862Z,8.80
2022-08-03T05:18:42.545Z,8.68
2022-08-03T05:21:11.031Z,9.32
2022-08-03T05:23:41.455Z,9.07
2022-08-03T05:26:11.801Z,10.38
2022-08-03T05:28:40.181Z,10.88
2022-08-03T05:31:19.673Z,11.57
2022-08-03T05:33:49.031Z,11.15
2022-08-03T05:36:17.466Z,11.55
2022-08-03T05:38:47.272Z,10.82
2022-08-03T05:41:21.432Z,11.07
2022-08-03T05:43:52.631Z,11.63
2022-08-03T05:46:21.592Z,12.65
2022-08-03T05:48:49.996Z,11.10
2022-08-03T05:51:18.679Z,11.30
2022-08-03T05:53:48.282Z,12.00
2022-08-03T05:56:17.109Z,11.95
2022-08-03T05:58:46.902Z,10.60
2022-08-03T06:01:15.692Z,11.30
2022-08-03T06:03:44.235Z,12.05
2022-08-03T06:06:13.278Z,11.43
2022-08-03T06:08:41.866Z,11.95
2022-08-03T06:11:11.463Z,11.20
2022-08-03T06:13:40.437Z,12.18
2022-08-03T06:16:09.015Z,11.95
2022-08-03T06:18:37.601Z,11.65
2022-08-03T06:21:14.705Z,11.52
2022-08-03T06:23:55.037Z,10.55
2022-08-03T06:26:27.659Z,10.20
2022-08-03T06:28:56.581Z,9.88
2022-08-03T06:31:32.731Z,10.77
2022-08-03T06:34:33.553Z,10.82
2022-08-03T06:36:52.308Z,6.70
2022-08-03T06:39:23.484Z,6.38
2022-08-03T06:41:54.342Z,6.70
2022-08-03T06:44:23.230Z,6.55
2022-08-03T06:46:51.866Z,6.47
2022-08-03T06:49:20.465Z,6.55
2022-08-03T06:52:03.330Z,7.05
2022-08-03T06:54:35.986Z,5.55
2022-08-03T06:57:06.316Z,5.95
2022-08-03T07:00:10.411Z,5.20
2022-08-03T07:02:23.318Z,4.13
2022-08-03T07:04:52.240Z,4.22
2022-08-03T07:07:20.831Z,3.67
2022-08-03T07:09:56.793Z,5.72
2022-08-03T07:12:28.097Z,4.07
2022-08-03T07:15:00.813Z,3.92
2022-08-03T07:17:31.276Z,3.75
2022-08-03T07:20:00.036Z,3.40
2022-08-03T07:22:28.613Z,3.80
2022-08-03T07:24:57.967Z,3.75
2022-08-03T07:27:28.683Z,4.22
2022-08-03T07:29:57.406Z,4.10
2022-08-03T07:32:26.063Z,4.43
2022-08-03T07:34:59.908Z,3.67
2022-08-03T07:37:29.939Z,3.65
2022-08-03T07:39:58.523Z,3.65
2022-08-03T07:42:28.189Z,3.88
2022-08-03T07:44:56.841Z,3.90
2022-08-03T07:47:26.260Z,3.75
2022-08-03T07:50:04.758Z,3.63
2022-08-03T07:52:52.050Z,3.60
2022-08-03T07:55:21.972Z,3.05
2022-08-03T07:58:04.976Z,3.42
2022-08-03T08:00:34.036Z,3.30
2022-08-03T08:03:02.501Z,4.28
2022-08-03T08:05:31.721Z,2.90
2022-08-03T08:08:00.093Z,3.95
2022-08-03T08:10:29.198Z,3.47
2022-08-03T08:12:58.902Z,3.78
2022-08-03T08:15:27.601Z,3.40
2022-08-03T08:17:57.685Z,3.05
2022-08-03T08:20:31.446Z,3.50
2022-08-03T08:23:02.122Z,3.33
2022-08-03T08:25:32.508Z,3.58
2022-08-03T08:28:29.417Z,3.38
2022-08-03T08:30:52.187Z,3.45
2022-08-03T08:33:22.974Z,3.17
2022-08-03T08:35:54.264Z,3.70
2022-08-03T08:38:23.145Z,2.85
2022-08-03T08:40:51.760Z,3.40
2022-08-03T08:43:21.357Z,3.40
2022-08-03T08:45:51.807Z,2.78
2022-08-03T08:48:25.636Z,3.05
2022-08-03T08:50:55.069Z,2.88
2022-08-03T08:53:27.224Z,3.30
2022-08-03T08:56:00.270Z,4.13
2022-08-03T08:58:36.041Z,3.72
2022-08-03T09:01:04.755Z,3.70
2022-08-03T09:03:35.123Z,3.67
2022-08-03T09:06:04.239Z,3.50
2022-08-03T09:08:34.022Z,4.30
2022-08-03T09:11:02.636Z,4.20
2022-08-03T09:13:33.996Z,4.00
2022-08-03T09:16:23.735Z,3.92
2022-08-03T09:18:54.259Z,3.97
2022-08-03T09:21:33.269Z,3.60
2022-08-03T09:24:06.171Z,3.58
2022-08-03T09:26:37.387Z,4.15
2022-08-03T09:29:13.274Z,3.10
2022-08-03T09:31:45.289Z,3.67
2022-08-03T09:34:15.792Z,3.45
2022-08-03T09:36:45.955Z,3.10
2022-08-03T09:39:15.656Z,3.60
2022-08-03T09:41:45.507Z,3.38
2022-08-03T09:44:23.994Z,3.33
2022-08-03T09:46:55.980Z,4.25
2022-08-03T09:49:25.345Z,4.00
2022-08-03T09:52:32.647Z,3.97
2022-08-03T09:54:43.330Z,3.80
2022-08-03T09:57:22.786Z,4.85
2022-08-03T10:00:02.993Z,5.30
2022-08-03T10:02:33.422Z,4.97
2022-08-03T10:05:02.226Z,4.40
2022-08-03T10:07:30.743Z,5.95
2022-08-03T10:10:30.254Z,5.75
2022-08-03T10:12:49.315Z,6.70
2022-08-03T10:16:22.081Z,5.55
2022-08-03T10:18:08.311Z,5.95
2022-08-03T10:20:42.468Z,6.25
2022-08-03T10:23:12.513Z,4.70
2022-08-03T10:25:42.152Z,4.82
2022-08-03T10:28:14.250Z,5.53
2022-08-03T10:30:48.862Z,5.80
2022-08-03T10:33:50.042Z,4.75
2022-08-03T10:36:09.587Z,4.00
2022-08-03T10:38:46.083Z,5.40
2022-08-03T10:41:16.585Z,4.57
2022-08-03T10:43:50.517Z,4.40
2022-08-03T10:46:22.098Z,4.60
2022-08-03T10:48:52.964Z,4.57
2022-08-03T10:51:22.080Z,3.55
2022-08-03T10:53:54.987Z,3.50
2022-08-03T10:57:13.663Z,3.50
2022-08-03T11:00:07.683Z,4.00
2022-08-03T11:03:09.268Z,3.72
2022-08-03T11:05:40.112Z,3.28
2022-08-03T11:08:34.998Z,3.40
2022-08-03T11:11:25.037Z,4.00
2022-08-03T11:14:02.837Z,3.50
2022-08-03T11:16:32.750Z,3.58
2022-08-03T11:19:04.726Z,3.42
2022-08-03T11:21:54.817Z,3.40
2022-08-03T11:25:00.711Z,3.72
2022-08-03T11:27:33.531Z,3.45
2022-08-03T11:30:05.379Z,3.55
2022-08-03T11:32:52.742Z,3.95
2022-08-03T11:35:24.361Z,3.80
2022-08-03T11:38:07.212Z,3.30
2022-08-03T11:40:37.423Z,3.78
2022-08-03T11:43:06.339Z,3.90
2022-08-03T11:45:34.881Z,3.75
2022-08-03T11:48:14.505Z,3.60
2022-08-03T11:50:45.444Z,4.03
2022-08-03T11:53:18.322Z,4.03
2022-08-03T11:55:48.977Z,3.83
2022-08-03T11:59:10.816Z,3.70
2022-08-03T12:01:08.771Z,3.08
2022-08-03T12:03:37.564Z,3.35
2022-08-03T12:06:11.591Z,3.72
2022-08-03T12:08:40.570Z,3.42
2022-08-03T12:11:10.706Z,3.13
2022-08-03T12:14:44.260Z,2.95
2022-08-03T12:16:32.314Z,3.28
2022-08-03T12:19:01.715Z,2.67
2022-08-03T12:21:31.870Z,2.85
2022-08-03T12:24:02.004Z,2.97
2022-08-03T12:26:32.243Z,2.95
2022-08-03T12:29:00.699Z,3.05
2022-08-03T12:31:28.975Z,3.38
2022-08-03T12:33:59.499Z,3.28
2022-08-03T12:36:28.927Z,3.13
2022-08-03T12:38:59.799Z,3.20
2022-08-03T12:41:34.060Z,3.17
2022-08-03T12:44:03.878Z,3.50
2022-08-03T12:46:34.537Z,3.28
2022-08-03T12:49:05.967Z,3.30
2022-08-03T12:51:35.980Z,2.92
2022-08-03T12:54:06.657Z,3.03
2022-08-03T12:56:35.496Z,2.72
2022-08-03T12:59:32.444Z,2.95
2022-08-03T13:02:04.559Z,3.00
2022-08-03T13:04:38.326Z,3.55
2022-08-03T13:07:14.257Z,2.72
2022-08-03T13:09:45.801Z,3.65
2022-08-03T13:12:17.024Z,3.60
2022-08-03T13:14:47.731Z,3.35
2022-08-03T13:17:17.789Z,3.42
2022-08-03T13:19:47.276Z,3.30
2022-08-03T13:22:17.436Z,2.80
2022-08-03T13:24:48.538Z,3.25
2022-08-03T13:28:02.665Z,3.05
2022-08-03T13:30:06.375Z,2.90
2022-08-03T13:32:34.989Z,3.08
2022-08-03T13:35:04.544Z,3.15
2022-08-03T13:37:33.310Z,3.15
2022-08-03T13:40:05.722Z,2.80
2022-08-03T13:42:36.182Z,2.92
2022-08-03T13:45:05.864Z,2.47
2022-08-03T13:47:34.322Z,3.28
2022-08-03T13:50:03.335Z,3.35
2022-08-03T13:52:32.707Z,3.75
2022-08-03T13:55:03.285Z,3.20
2022-08-03T13:58:02.821Z,2.80
2022-08-03T14:00:27.383Z,3.30
2022-08-03T14:03:12.205Z,3.65
2022-08-03T14:05:42.719Z,3.17
2022-08-03T14:08:12.242Z,3.13
2022-08-03T14:10:43.936Z,3.25
2022-08-03T14:13:16.872Z,3.17
2022-08-03T14:15:49.796Z,3.95
2022-08-03T14:18:27.805Z,3.10
2022-08-03T14:21:05.886Z,3.10
2022-08-03T14:23:35.610Z,3.35
2022-08-03T14:26:05.311Z,2.80
2022-08-03T14:28:33.856Z,3.28
2022-08-03T14:31:02.893Z,3.88
2022-08-03T14:33:31.303Z,3.15
2022-08-03T14:36:00.433Z,3.53
2022-08-03T14:38:28.761Z,2.92
2022-08-03T14:40:57.407Z,3.00
2022-08-03T14:43:34.038Z,3.47
2022-08-03T14:46:02.990Z,2.60
2022-08-03T14:50:28.497Z,2.95
2022-08-03T14:51:19.896Z,2.95
2022-08-03T14:53:48.369Z,2.40
2022-08-03T14:56:16.815Z,3.05
2022-08-03T14:58:46.498Z,2.30
2022-08-03T15:02:02.154Z,2.45
2022-08-03T15:04:03.041Z,2.80
2022-08-03T15:06:31.641Z,2.35
2022-08-03T15:09:21.201Z,3.72
2022-08-03T15:11:48.376Z,2.60
2022-08-03T15:14:19.913Z,2.58
2022-08-03T15:16:56.976Z,3.15
2022-08-03T15:20:03.860Z,2.72
2022-08-03T15:22:15.510Z,3.30
2022-08-03T15:24:47.813Z,2.63
2022-08-03T15:27:16.299Z,2.88
2022-08-03T15:30:05.990Z,2.88
2022-08-03T15:32:34.664Z,2.80
2022-08-03T15:35:03.242Z,2.58
2022-08-03T15:37:31.832Z,2.50
2022-08-03T15:40:01.080Z,2.30
2022-08-03T15:42:30.651Z,2.38
2022-08-03T15:45:00.760Z,2.90
2022-08-03T15:47:29.049Z,2.60
2022-08-03T15:49:57.437Z,2.40
2022-08-03T15:52:25.967Z,2.75
2022-08-03T15:54:54.958Z,2.55
2022-08-03T15:57:23.810Z,2.95
2022-08-03T15:59:52.475Z,3.25
2022-08-03T16:02:22.278Z,3.03
2022-08-03T16:04:52.092Z,2.90
2022-08-03T16:07:41.171Z,2.45
2022-08-03T16:10:30.571Z,2.35
2022-08-03T16:13:00.256Z,2.35
2022-08-03T16:15:28.711Z,2.20
2022-08-03T16:17:58.432Z,2.17
2022-08-03T16:20:34.099Z,2.38
2022-08-03T16:23:10.574Z,2.38
2022-08-03T16:25:40.528Z,2.10
2022-08-03T16:28:13.988Z,1.95
2022-08-03T16:30:43.973Z,2.30
2022-08-03T16:33:17.363Z,2.00
2022-08-03T16:35:46.881Z,1.80
2022-08-03T16:38:19.083Z,1.92
2022-08-03T16:40:51.713Z,4.25
2022-08-03T16:43:22.115Z,3.90
2022-08-03T16:45:52.645Z,1.63
2022-08-03T16:48:22.294Z,2.10
2022-08-03T16:50:50.792Z,1.48
2022-08-03T16:53:33.768Z,1.55
2022-08-03T16:56:10.613Z,1.33
2022-08-03T16:58:42.488Z,1.30
2022-08-03T17:01:21.931Z,1.50
2022-08-03T17:04:02.760Z,1.35
2022-08-03T17:06:35.132Z,1.90
2022-08-03T17:09:09.249Z,1.50
2022-08-03T17:11:43.893Z,2.03
2022-08-03T17:14:16.218Z,2.03
2022-08-03T17:16:52.586Z,1.52
2022-08-03T17:19:24.572Z,1.52
2022-08-03T17:22:01.405Z,1.50
2022-08-03T17:24:34.023Z,1.70
2022-08-03T17:27:04.413Z,1.50
2022-08-03T17:29:45.106Z,1.80
2022-08-03T17:32:18.426Z,2.10
2022-08-03T17:34:51.426Z,2.22
2022-08-03T17:37:27.161Z,1.80
2022-08-03T17:40:17.375Z,1.90
2022-08-03T17:42:50.837Z,2.30
2022-08-03T17:45:20.354Z,1.88
2022-08-03T17:50:45.522Z,1.98
2022-08-03T17:53:24.096Z,1.55
2022-08-03T17:56:07.707Z,1.95
2022-08-03T17:59:08.548Z,2.45
2022-08-03T18:02:10.341Z,2.08
2022-08-03T18:04:55.451Z,1.67
2022-08-03T18:07:41.352Z,2.08
2022-08-03T18:10:11.297Z,1.60
2022-08-03T18:12:51.779Z,2.30
2022-08-03T18:15:27.914Z,1.95
2022-08-03T18:18:02.706Z,2.42
2022-08-03T18:20:41.247Z,2.90
2022-08-03T18:23:25.416Z,2.13
2022-08-03T18:26:04.926Z,2.00
2022-08-03T18:28:34.885Z,2.60
2022-08-03T18:31:06.049Z,2.00
2022-08-03T18:34:16.977Z,1.85
2022-08-03T18:36:30.313Z,2.00
2022-08-03T18:39:02.518Z,2.08
2022-08-03T18:41:34.363Z,2.08
2022-08-03T18:44:09.638Z,2.25
2022-08-03T18:47:16.374Z,2.13
2022-08-03T18:49:57.892Z,2.03
2022-08-03T18:52:32.091Z,1.70
2022-08-03T18:55:20.727Z,1.88
2022-08-03T18:57:57.089Z,2.10
2022-08-03T19:00:42.334Z,2.20
2022-08-03T19:06:09.538Z,2.13
2022-08-03T19:08:50.262Z,2.08
2022-08-03T19:11:27.927Z,2.78
2022-08-03T19:13:59.255Z,2.05
2022-08-03T19:16:34.312Z,2.10
2022-08-03T19:19:03.028Z,1.80
2022-08-03T19:21:34.595Z,2.20
2022-08-03T19:24:09.467Z,2.00
2022-08-03T19:26:41.365Z,2.45
2022-08-03T19:29:15.071Z,1.90
2022-08-03T19:31:59.218Z,2.55
2022-08-03T19:34:29.219Z,1.85
2022-08-03T19:36:58.659Z,2.05
2022-08-03T19:39:27.298Z,2.05
2022-08-03T19:42:08.230Z,4.30
2022-08-03T19:44:42.217Z,3.72
2022-08-03T19:47:16.752Z,2.45
2022-08-03T19:50:01.303Z,2.40
2022-08-03T19:52:36.535Z,2.40
2022-08-03T19:55:09.621Z,1.80
2022-08-03T19:57:45.601Z,2.10
2022-08-03T20:00:19.297Z,2.30
2022-08-03T20:02:50.896Z,2.35
2022-08-03T20:05:20.058Z,2.22
2022-08-03T20:07:48.807Z,2.38
2022-08-03T20:10:18.028Z,2.03
2022-08-03T20:12:49.217Z,2.13
2022-08-03T20:15:31.300Z,2.38
2022-08-03T20:18:00.832Z,1.92
2022-08-03T20:20:31.131Z,2.53
2022-08-03T20:23:00.899Z,2.30
2022-08-03T20:25:38.152Z,2.75
2022-08-03T20:28:13.791Z,2.53
2022-08-03T20:30:47.177Z,2.28
2022-08-03T20:33:18.893Z,3.75
2022-08-03T20:35:49.650Z,4.65
2022-08-03T20:38:19.003Z,4.20
2022-08-03T20:40:47.990Z,3.75
2022-08-03T20:43:19.890Z,3.22
2022-08-03T20:45:58.235Z,3.17
2022-08-03T20:48:29.842Z,2.08
2022-08-03T20:50:59.450Z,2.25
2022-08-03T20:53:56.773Z,2.72
2022-08-03T20:56:22.177Z,2.60
2022-08-03T20:58:55.572Z,2.47
2022-08-03T21:01:27.683Z,2.60
2022-08-03T21:07:00.684Z,2.55
2022-08-03T21:09:41.593Z,2.63
2022-08-03T21:12:17.974Z,2.20
2022-08-03T21:13:05.814Z,2.10
2022-08-03T21:13:07.968Z,2.35
2022-08-03T21:13:09.284Z,2.53
2022-08-03T21:14:55.628Z,2.33
2022-08-03T21:17:39.907Z,2.25
2022-08-03T21:20:10.931Z,2.47
2022-08-03T21:22:40.435Z,3.20
2022-08-03T21:25:11.143Z,2.60
2022-08-03T21:27:39.625Z,2.00
2022-08-03T21:30:11.991Z,2.47
2022-08-03T21:32:41.190Z,2.42
2022-08-03T21:35:11.282Z,2.15
2022-08-03T21:37:40.781Z,2.15
2022-08-03T21:40:12.153Z,1.80
2022-08-03T21:42:41.018Z,2.38
2022-08-03T21:45:17.093Z,2.30
2022-08-03T21:47:48.472Z,2.60
2022-08-03T21:50:17.958Z,2.30
2022-08-03T21:52:47.996Z,2.42
2022-08-03T21:55:20.719Z,2.67
2022-08-03T21:57:53.422Z,2.45
2022-08-03T22:00:24.459Z,2.20
2022-08-03T22:02:55.351Z,4.43
2022-08-03T22:05:42.671Z,4.60
2022-08-03T22:08:13.754Z,3.70
2022-08-03T22:10:44.633Z,4.05
2022-08-03T22:13:13.304Z,4.07
2022-08-03T22:15:42.929Z,3.15
2022-08-03T22:18:11.608Z,2.60
2022-08-03T22:20:39.990Z,2.75
2022-08-03T22:23:09.139Z,2.50
2022-08-03T22:25:40.345Z,3.28
2022-08-03T22:28:11.061Z,3.00
2022-08-03T22:30:40.131Z,3.10
2022-08-03T22:33:12.195Z,2.47
2022-08-03T22:35:47.248Z,3.05
2022-08-03T22:38:17.979Z,2.88
2022-08-03T22:40:48.359Z,3.30
2022-08-03T22:43:17.209Z,2.70
2022-08-03T22:46:10.303Z,2.83
2022-08-03T22:48:41.156Z,2.33
2022-08-03T22:51:10.462Z,2.85
2022-08-03T22:53:40.281Z,2.42
2022-08-03T22:56:09.255Z,2.35
2022-08-03T22:58:37.751Z,2.40
2022-08-03T23:01:09.709Z,3.03
2022-08-03T23:04:00.661Z,2.97
2022-08-03T23:06:35.515Z,2.70
2022-08-03T23:09:07.207Z,3.05
2022-08-03T23:11:42.862Z,3.72
2022-08-03T23:14:16.326Z,2.90
2022-08-03T23:16:45.768Z,3.22
2022-08-03T23:19:24.944Z,2.67
2022-08-03T23:22:02.607Z,2.80
2022-08-03T23:24:34.912Z,2.80
2022-08-03T23:27:05.207Z,3.25
2022-08-03T23:29:36.209Z,3.03
2022-08-03T23:32:05.750Z,3.33
2022-08-03T23:34:56.995Z,3.30
2022-08-03T23:37:26.522Z,4.28
2022-08-03T23:39:55.876Z,3.53
2022-08-03T23:42:25.146Z,3.80
2022-08-03T23:44:59.431Z,4.45
2022-08-03T23:47:46.235Z,4.68
2022-08-03T23:50:20.794Z,4.53
2022-08-03T23:52:59.365Z,4.43
2022-08-03T23:55:43.074Z,4.55
2022-08-03T23:58:20.420Z,4.13
